createdAt,value
2022-08-18T00:01:58.790Z,19.60
2022-08-18T00:04:36.355Z,19.50
2022-08-18T00:07:15.574Z,19.40
2022-08-18T00:09:43.312Z,19.30
2022-08-18T00:12:18.840Z,19.30
2022-08-18T00:14:46.927Z,19.20
2022-08-18T00:17:15.605Z,19.10
2022-08-18T00:19:47.697Z,19.10
2022-08-18T00:22:19.186Z,19.00
2022-08-18T00:24:54.061Z,18.90
2022-08-18T00:27:28.681Z,18.80
2022-08-18T00:29:58.179Z,18.70
2022-08-18T00:32:30.509Z,18.80
2022-08-18T00:34:57.748Z,19.10
2022-08-18T00:37:25.176Z,19.00
2022-08-18T00:39:53.541Z,19.00
2022-08-18T00:42:27.756Z,19.10
2022-08-18T00:45:01.847Z,19.10
2022-08-18T00:47:42.078Z,19.00
2022-08-18T00:50:15.345Z,18.90
2022-08-18T00:52:52.434Z,18.80
2022-08-18T00:55:20.485Z,18.60
2022-08-18T00:57:51.600Z,18.50
2022-08-18T01:00:19.083Z,18.30
2022-08-18T01:02:53.005Z,18.00
2022-08-18T01:05:40.767Z,17.90
2022-08-18T01:08:13.570Z,17.80
2022-08-18T01:10:41.635Z,17.80
2022-08-18T01:13:08.799Z,17.70
2022-08-18T01:15:36.396Z,17.70
2022-08-18T01:18:30.122Z,17.80
2022-08-18T01:21:31.862Z,17.80
2022-08-18T01:23:59.678Z,17.80
2022-08-18T01:26:28.530Z,17.80
2022-08-18T01:28:55.424Z,17.80
2022-08-18T01:31:39.790Z,17.90
2022-08-18T01:34:22.559Z,18.00
2022-08-18T01:36:52.379Z,18.00
2022-08-18T01:41:11.135Z,18.10
2022-08-18T01:42:08.231Z,18.10
2022-08-18T01:44:35.365Z,18.30
2022-08-18T01:47:02.397Z,18.40
2022-08-18T01:49:29.257Z,18.60
2022-08-18T01:51:56.142Z,18.80
2022-08-18T01:54:23.124Z,18.80
2022-08-18T01:56:50.265Z,18.90
2022-08-18T01:59:17.302Z,19.00
2022-08-18T02:01:50.649Z,19.10
2022-08-18T02:04:36.176Z,19.10
2022-08-18T02:07:09.732Z,19.00
2022-08-18T02:09:37.854Z,18.90
2022-08-18T02:12:07.237Z,18.60
2022-08-18T02:14:40.890Z,18.60
2022-08-18T02:17:10.999Z,18.70
2022-08-18T02:19:42.529Z,18.70
2022-08-18T02:22:13.626Z,18.80
2022-08-18T02:24:41.138Z,18.70
2022-08-18T02:27:10.713Z,18.60
2022-08-18T02:29:37.895Z,18.50
2022-08-18T02:32:05.953Z,18.40
2022-08-18T02:34:33.386Z,18.40
2022-08-18T02:37:01.549Z,18.40
2022-08-18T02:39:29.096Z,18.40
2022-08-18T02:41:56.116Z,18.50
2022-08-18T02:44:23.076Z,18.60
2022-08-18T02:46:54.069Z,18.70
2022-08-18T02:49:21.228Z,18.70
2022-08-18T02:51:48.210Z,18.70
2022-08-18T02:54:15.218Z,18.60
2022-08-18T02:56:42.580Z,18.60
2022-08-18T02:59:19.947Z,18.60
2022-08-18T03:01:49.154Z,18.50
2022-08-18T03:04:17.585Z,18.50
2022-08-18T03:06:46.367Z,18.40
2022-08-18T03:09:15.072Z,18.40
2022-08-18T03:11:43.433Z,18.50
2022-08-18T03:14:11.850Z,18.50
2022-08-18T03:16:53.567Z,18.50
2022-08-18T03:19:28.205Z,18.50
2022-08-18T03:21:58.112Z,18.50
2022-08-18T03:24:26.234Z,18.50
2022-08-18T03:26:54.027Z,18.60
2022-08-18T03:29:21.455Z,18.60
2022-08-18T03:31:49.104Z,18.70
2022-08-18T03:34:19.702Z,18.50
2022-08-18T03:36:48.341Z,18.40
2022-08-18T03:39:15.226Z,18.40
2022-08-18T03:41:59.171Z,18.50
2022-08-18T03:44:32.512Z,18.60
2022-08-18T03:47:01.032Z,18.80
2022-08-18T03:49:27.983Z,18.70
2022-08-18T03:51:55.674Z,18.70
2022-08-18T03:54:23.141Z,18.70
2022-08-18T03:56:50.059Z,18.70
2022-08-18T03:59:24.808Z,18.70
2022-08-18T04:01:54.894Z,18.70
2022-08-18T04:04:25.486Z,18.80
2022-08-18T04:06:58.893Z,18.80
2022-08-18T04:09:28.656Z,18.90
2022-08-18T04:11:56.109Z,19.00
2022-08-18T04:14:25.049Z,19.30
2022-08-18T04:16:52.374Z,19.60
2022-08-18T04:19:26.643Z,19.60
2022-08-18T04:21:57.213Z,19.60
2022-08-18T04:24:26.069Z,19.60
2022-08-18T04:26:53.727Z,19.60
2022-08-18T04:29:21.817Z,19.70
2022-08-18T04:31:50.422Z,19.70
2022-08-18T04:34:20.545Z,19.60
2022-08-18T04:36:47.677Z,19.60
2022-08-18T04:39:14.833Z,19.60
2022-08-18T04:41:43.849Z,19.60
2022-08-18T04:44:11.945Z,19.60
2022-08-18T04:46:44.235Z,19.70
2022-08-18T04:49:12.105Z,19.70
2022-08-18T04:52:22.498Z,19.80
2022-08-18T04:54:29.918Z,19.80
2022-08-18T04:56:56.760Z,19.70
2022-08-18T04:59:24.995Z,19.70
2022-08-18T05:01:51.842Z,19.70
2022-08-18T05:04:18.828Z,19.60
2022-08-18T05:06:46.473Z,19.50
2022-08-18T05:09:16.613Z,19.50
2022-08-18T05:11:50.834Z,19.50
2022-08-18T05:14:18.496Z,19.60
2022-08-18T05:16:48.790Z,19.70
2022-08-18T05:19:23.211Z,19.80
2022-08-18T05:21:59.506Z,19.90
2022-08-18T05:24:34.260Z,19.80
2022-08-18T05:27:04.804Z,19.70
2022-08-18T05:29:36.658Z,19.70
2022-08-18T05:32:09.389Z,19.80
2022-08-18T05:34:36.512Z,19.90
2022-08-18T05:37:32.366Z,19.90
2022-08-18T05:40:11.067Z,20.00
2022-08-18T05:42:40.359Z,20.10
2022-08-18T05:45:12.785Z,20.10
2022-08-18T05:47:40.032Z,20.10
2022-08-18T05:50:11.271Z,20.00
2022-08-18T05:53:00.595Z,20.00
2022-08-18T05:55:55.279Z,20.00
2022-08-18T05:58:32.900Z,19.90
2022-08-18T06:01:05.355Z,19.90
2022-08-18T06:03:57.549Z,19.80
2022-08-18T06:06:30.293Z,19.80
2022-08-18T06:09:23.527Z,19.90
2022-08-18T06:11:51.219Z,20.00
2022-08-18T06:14:19.052Z,20.10
2022-08-18T06:16:58.373Z,20.30
2022-08-18T06:19:49.021Z,20.40
2022-08-18T06:22:36.288Z,20.60
2022-08-18T06:25:33.137Z,20.70
2022-08-18T06:28:08.603Z,20.70
2022-08-18T06:30:41.484Z,20.70
2022-08-18T06:33:23.477Z,20.80
2022-08-18T06:35:55.009Z,20.80
2022-08-18T06:38:41.041Z,20.90
2022-08-18T06:41:40.588Z,20.80
2022-08-18T06:44:25.584Z,20.90
2022-08-18T06:47:08.151Z,21.00
2022-08-18T06:49:42.298Z,21.20
2022-08-18T06:52:38.386Z,21.20
2022-08-18T06:55:15.942Z,21.30
2022-08-18T06:58:01.572Z,21.30
2022-08-18T07:00:32.476Z,21.40
2022-08-18T07:03:08.221Z,21.40
2022-08-18T07:05:37.349Z,21.40
2022-08-18T07:08:04.462Z,21.50
2022-08-18T07:10:43.328Z,21.60
2022-08-18T07:13:13.132Z,21.80
2022-08-18T07:15:40.726Z,21.90
2022-08-18T07:18:14.524Z,22.00
2022-08-18T07:20:45.875Z,22.10
2022-08-18T07:23:42.169Z,22.10
2022-08-18T07:26:17.437Z,22.20
2022-08-18T07:28:52.994Z,22.30
2022-08-18T07:31:24.859Z,22.40
2022-08-18T07:34:00.761Z,22.50
2022-08-18T07:36:33.386Z,22.60
2022-08-18T07:39:11.734Z,22.50
2022-08-18T07:41:48.172Z,22.50
2022-08-18T07:44:28.599Z,22.50
2022-08-18T07:47:01.913Z,22.50
2022-08-18T07:49:35.508Z,22.50
2022-08-18T07:52:44.137Z,22.50
2022-08-18T07:55:24.533Z,22.70
2022-08-18T07:58:18.697Z,22.90
2022-08-18T08:01:16.178Z,23.00
2022-08-18T08:03:55.374Z,23.20
2022-08-18T08:06:25.445Z,23.10
2022-08-18T08:08:59.062Z,23.20
2022-08-18T08:11:41.630Z,23.20
2022-08-18T08:14:37.955Z,23.20
2022-08-18T08:17:17.341Z,23.10
2022-08-18T08:20:00.883Z,23.00
2022-08-18T08:22:44.134Z,23.00
2022-08-18T08:28:15.181Z,23.00
2022-08-18T08:31:32.995Z,23.00
2022-08-18T08:34:19.676Z,23.10
2022-08-18T08:36:49.727Z,23.20
2022-08-18T08:39:38.565Z,23.30
2022-08-18T08:42:31.509Z,23.50
2022-08-18T08:45:05.217Z,23.70
2022-08-18T08:47:49.212Z,23.80
2022-08-18T08:50:26.426Z,23.80
2022-08-18T08:53:04.940Z,23.80
2022-08-18T08:55:36.729Z,23.90
2022-08-18T08:58:17.042Z,24.00
2022-08-18T09:00:44.744Z,23.90
2022-08-18T09:03:30.277Z,24.00
2022-08-18T09:06:00.486Z,24.00
2022-08-18T09:08:39.264Z,24.00
2022-08-18T09:11:26.740Z,24.10
2022-08-18T09:14:14.444Z,24.10
2022-08-18T09:16:41.302Z,24.20
2022-08-18T09:19:32.884Z,24.10
2022-08-18T09:22:14.690Z,24.10
2022-08-18T09:24:47.762Z,23.90
2022-08-18T09:28:10.555Z,23.80
2022-08-18T09:30:41.062Z,23.70
2022-08-18T09:33:24.648Z,23.60
2022-08-18T09:36:10.595Z,23.50
2022-08-18T09:39:27.506Z,23.50
2022-08-18T09:42:03.257Z,23.30
2022-08-18T09:44:48.682Z,23.10
2022-08-18T09:47:23.791Z,22.90
2022-08-18T09:49:54.707Z,22.70
2022-08-18T09:52:24.157Z,22.60
2022-08-18T09:55:06.260Z,22.70
2022-08-18T09:57:42.323Z,22.60
2022-08-18T10:00:15.066Z,22.70
2022-08-18T10:02:48.525Z,22.70
2022-08-18T10:05:17.037Z,22.80
2022-08-18T10:08:21.276Z,22.80
2022-08-18T10:10:59.861Z,22.90
2022-08-18T10:14:04.172Z,23.10
2022-08-18T10:16:51.214Z,23.30
2022-08-18T10:19:39.449Z,23.60
2022-08-18T10:22:10.587Z,23.80
2022-08-18T10:24:53.886Z,23.80
2022-08-18T10:27:52.653Z,23.90
2022-08-18T10:30:56.195Z,24.10
2022-08-18T10:34:05.373Z,24.20
2022-08-18T10:36:49.439Z,24.40
2022-08-18T10:39:30.798Z,24.60
2022-08-18T10:42:14.885Z,24.60
2022-08-18T10:44:45.577Z,24.90
2022-08-18T10:47:33.589Z,25.10
2022-08-18T10:50:06.053Z,25.10
2022-08-18T10:53:39.196Z,25.10
2022-08-18T10:59:19.087Z,25.20
2022-08-18T11:02:11.565Z,25.40
2022-08-18T11:04:43.718Z,25.50
2022-08-18T11:07:22.046Z,25.60
2022-08-18T11:10:04.716Z,25.60
2022-08-18T11:13:01.452Z,25.60
2022-08-18T11:15:57.224Z,25.70
2022-08-18T11:21:42.119Z,25.90
2022-08-18T11:24:17.586Z,25.90
2022-08-18T11:29:41.611Z,25.80
2022-08-18T11:32:32.604Z,25.50
2022-08-18T11:35:10.833Z,25.30
2022-08-18T11:37:53.828Z,25.50
2022-08-18T11:41:02.193Z,25.60
2022-08-18T11:43:16.330Z,25.60
2022-08-18T11:46:11.862Z,25.40
2022-08-18T11:48:51.911Z,24.90
2022-08-18T11:51:25.352Z,25.00
2022-08-18T11:54:00.676Z,25.10
2022-08-18T11:56:31.699Z,25.90
2022-08-18T11:59:05.099Z,26.80
2022-08-18T12:01:41.789Z,26.80
2022-08-18T12:04:18.169Z,26.50
2022-08-18T12:06:45.560Z,26.10
2022-08-18T12:09:19.991Z,25.60
2022-08-18T12:12:04.231Z,25.50
2022-08-18T12:14:51.278Z,25.40
2022-08-18T12:17:19.088Z,25.70
2022-08-18T12:19:47.726Z,26.90
2022-08-18T12:22:27.101Z,27.40
2022-08-18T12:24:54.808Z,27.90
2022-08-18T12:27:24.235Z,28.00
2022-08-18T12:29:53.262Z,28.20
2022-08-18T12:32:46.674Z,28.30
2022-08-18T12:35:14.097Z,28.20
2022-08-18T12:38:03.551Z,28.10
2022-08-18T12:40:32.471Z,28.40
2022-08-18T12:42:59.880Z,29.10
2022-08-18T12:45:28.207Z,29.20
2022-08-18T12:47:55.941Z,29.40
2022-08-18T12:50:31.761Z,29.20
2022-08-18T12:53:11.550Z,29.10
2022-08-18T12:55:45.547Z,29.30
2022-08-18T12:58:12.883Z,29.80
2022-08-18T13:00:41.045Z,30.90
2022-08-18T13:03:08.724Z,31.70
2022-08-18T13:05:36.188Z,32.80
2022-08-18T13:08:06.011Z,33.30
2022-08-18T13:10:45.794Z,33.20
2022-08-18T13:13:16.126Z,33.60
2022-08-18T13:15:55.677Z,34.20
2022-08-18T13:18:27.259Z,34.60
2022-08-18T13:20:59.695Z,34.70
2022-08-18T13:23:27.602Z,33.80
2022-08-18T13:26:02.175Z,32.30
2022-08-18T13:28:35.477Z,31.70
2022-08-18T13:31:06.900Z,31.30
2022-08-18T13:33:57.210Z,30.60
2022-08-18T13:36:22.530Z,30.20
2022-08-18T13:38:52.301Z,30.40
2022-08-18T13:43:52.358Z,31.20
2022-08-18T13:46:29.842Z,30.70
2022-08-18T13:49:02.273Z,29.90
2022-08-18T13:51:30.400Z,29.20
2022-08-18T13:54:18.386Z,28.90
2022-08-18T13:56:51.990Z,28.00
2022-08-18T13:59:21.689Z,27.60
2022-08-18T14:01:52.992Z,27.40
2022-08-18T14:04:22.465Z,27.30
2022-08-18T14:06:57.252Z,27.20
2022-08-18T14:09:37.370Z,27.70
2022-08-18T14:12:07.129Z,29.20
2022-08-18T14:14:43.139Z,30.20
2022-08-18T14:17:10.030Z,30.10
2022-08-18T14:19:56.989Z,30.20
2022-08-18T14:22:42.857Z,31.30
2022-08-18T14:25:28.745Z,32.10
2022-08-18T14:27:56.442Z,32.60
2022-08-18T14:30:23.948Z,32.30
2022-08-18T14:32:53.355Z,32.40
2022-08-18T14:35:32.014Z,33.00
2022-08-18T14:38:02.600Z,33.50
2022-08-18T14:40:31.512Z,34.20
2022-08-18T14:42:58.870Z,34.70
2022-08-18T14:45:34.142Z,35.30
2022-08-18T14:48:06.521Z,35.40
2022-08-18T14:50:35.611Z,34.50
2022-08-18T14:53:04.313Z,33.20
2022-08-18T14:55:31.240Z,32.80
2022-08-18T14:57:59.585Z,33.50
2022-08-18T15:00:27.264Z,34.40
2022-08-18T15:02:54.637Z,34.90
2022-08-18T15:05:24.494Z,35.30
2022-08-18T15:07:53.036Z,34.40
2022-08-18T15:10:23.367Z,34.90
2022-08-18T15:12:50.995Z,35.40
2022-08-18T15:15:18.649Z,35.80
2022-08-18T15:17:49.498Z,35.80
2022-08-18T15:20:17.396Z,34.70
2022-08-18T15:23:04.503Z,33.30
2022-08-18T15:25:51.076Z,32.00
2022-08-18T15:28:25.310Z,31.20
2022-08-18T15:31:16.798Z,31.00
2022-08-18T15:33:39.966Z,31.80
2022-08-18T15:36:10.147Z,33.10
2022-08-18T15:38:37.145Z,32.80
2022-08-18T15:41:06.350Z,32.00
2022-08-18T15:43:45.839Z,31.30
2022-08-18T15:46:14.024Z,30.70
2022-08-18T15:48:44.055Z,30.80
2022-08-18T15:51:12.138Z,31.60
2022-08-18T15:53:44.804Z,32.00
2022-08-18T15:56:20.826Z,31.90
2022-08-18T15:58:48.584Z,32.20
2022-08-18T16:01:29.816Z,32.80
2022-08-18T16:04:01.200Z,33.40
2022-08-18T16:06:32.361Z,34.30
2022-08-18T16:09:01.631Z,34.70
2022-08-18T16:11:30.047Z,35.10
2022-08-18T16:13:59.003Z,35.50
2022-08-18T16:16:35.534Z,35.50
2022-08-18T16:19:05.850Z,35.70
2022-08-18T16:21:33.025Z,35.30
2022-08-18T16:23:59.897Z,33.80
2022-08-18T16:26:26.854Z,33.40
2022-08-18T16:28:53.742Z,33.30
2022-08-18T16:31:26.513Z,33.80
2022-08-18T16:33:55.312Z,34.40
2022-08-18T16:36:25.543Z,34.90
2022-08-18T16:38:54.161Z,34.90
2022-08-18T16:41:25.969Z,33.80
2022-08-18T16:43:53.050Z,32.70
2022-08-18T16:46:24.588Z,31.70
2022-08-18T16:48:51.868Z,31.00
2022-08-18T16:51:21.958Z,30.20
2022-08-18T16:53:52.459Z,29.90
2022-08-18T16:56:22.301Z,29.70
2022-08-18T16:59:09.645Z,30.30
2022-08-18T17:01:56.111Z,31.00
2022-08-18T17:04:28.763Z,31.70
2022-08-18T17:06:56.960Z,32.30
2022-08-18T17:09:24.007Z,32.90
2022-08-18T17:11:52.373Z,33.00
2022-08-18T17:14:23.027Z,33.20
2022-08-18T17:16:54.859Z,33.40
2022-08-18T17:19:29.925Z,33.80
2022-08-18T17:21:57.221Z,33.60
2022-08-18T17:24:31.296Z,33.30
2022-08-18T17:27:26.736Z,32.90
2022-08-18T17:30:03.931Z,32.10
2022-08-18T17:32:48.757Z,31.50
2022-08-18T17:35:42.876Z,30.80
2022-08-18T17:38:36.272Z,30.10
2022-08-18T17:41:04.503Z,29.70
2022-08-18T17:43:32.961Z,29.30
2022-08-18T17:45:59.864Z,28.90
2022-08-18T17:48:38.547Z,28.60
2022-08-18T17:51:34.293Z,28.20
2022-08-18T17:54:12.246Z,27.70
2022-08-18T17:57:00.318Z,27.30
2022-08-18T17:59:42.867Z,26.90
2022-08-18T18:02:29.387Z,26.50
2022-08-18T18:05:07.287Z,26.10
2022-08-18T18:07:39.141Z,25.70
2022-08-18T18:10:25.463Z,25.50
2022-08-18T18:13:27.852Z,25.00
2022-08-18T18:15:56.447Z,24.70
2022-08-18T18:18:23.244Z,24.50
2022-08-18T18:21:15.284Z,24.40
2022-08-18T18:24:11.792Z,24.40
2022-08-18T18:26:48.089Z,24.20
2022-08-18T18:29:20.558Z,24.10
2022-08-18T18:31:58.208Z,24.00
2022-08-18T18:34:40.559Z,23.90
2022-08-18T18:37:25.079Z,23.70
2022-08-18T18:40:27.349Z,23.60
2022-08-18T18:42:55.551Z,23.30
2022-08-18T18:45:28.788Z,23.10
2022-08-18T18:48:51.107Z,22.90
2022-08-18T18:51:10.867Z,22.70
2022-08-18T18:53:52.592Z,22.80
2022-08-18T18:56:41.035Z,22.60
2022-08-18T18:59:21.696Z,22.50
2022-08-18T19:02:34.161Z,22.40
2022-08-18T19:05:09.043Z,22.20
2022-08-18T19:07:54.780Z,22.10
2022-08-18T19:10:37.596Z,21.90
2022-08-18T19:13:32.966Z,21.80
2022-08-18T19:16:25.172Z,21.80
2022-08-18T19:19:35.527Z,21.70
2022-08-18T19:22:03.728Z,21.60
2022-08-18T19:24:38.822Z,21.40
2022-08-18T19:27:11.132Z,21.30
2022-08-18T19:29:43.679Z,21.20
2022-08-18T19:32:20.048Z,21.00
2022-08-18T19:34:52.382Z,20.90
2022-08-18T19:38:23.309Z,20.80
2022-08-18T19:41:00.313Z,20.70
2022-08-18T19:44:02.004Z,20.60
2022-08-18T19:46:39.688Z,20.50
2022-08-18T19:49:15.943Z,20.50
2022-08-18T19:51:44.571Z,20.40
2022-08-18T19:54:26.869Z,20.30
2022-08-18T19:57:15.345Z,20.20
2022-08-18T20:00:10.775Z,20.20
2022-08-18T20:02:49.062Z,20.10
2022-08-18T20:05:41.285Z,20.10
2022-08-18T20:08:30.305Z,20.10
2022-08-18T20:11:41.259Z,20.00
2022-08-18T20:14:17.091Z,19.90
2022-08-18T20:17:19.646Z,19.80
2022-08-18T20:19:57.525Z,19.80
2022-08-18T20:22:25.137Z,19.80
2022-08-18T20:25:05.868Z,19.80
2022-08-18T20:27:41.931Z,19.80
2022-08-18T20:30:26.290Z,19.80
2022-08-18T20:33:14.657Z,19.70
2022-08-18T20:35:51.975Z,19.70
2022-08-18T20:38:37.686Z,19.70
2022-08-18T20:41:23.574Z,19.70
2022-08-18T20:43:58.316Z,19.70
2022-08-18T20:46:43.171Z,19.70
2022-08-18T20:49:28.453Z,19.70
2022-08-18T20:52:04.085Z,19.70
2022-08-18T20:54:57.224Z,19.60
2022-08-18T20:57:27.152Z,19.80
2022-08-18T21:00:14.474Z,19.90
2022-08-18T21:02:51.793Z,20.00
2022-08-18T21:05:33.850Z,20.10
2022-08-18T21:08:28.836Z,20.30
2022-08-18T21:11:05.571Z,20.30
2022-08-18T21:13:38.403Z,20.10
2022-08-18T21:16:06.082Z,20.00
2022-08-18T21:18:35.086Z,20.00
2022-08-18T21:21:03.857Z,19.90
2022-08-18T21:23:34.190Z,19.80
2022-08-18T21:26:15.847Z,19.70
2022-08-18T21:28:49.412Z,19.60
2022-08-18T21:31:44.422Z,19.60
2022-08-18T21:34:35.589Z,19.60
2022-08-18T21:37:06.481Z,19.60
2022-08-18T21:39:34.962Z,19.50
2022-08-18T21:42:02.323Z,19.50
2022-08-18T21:44:43.497Z,19.70
2022-08-18T21:47:29.320Z,20.00
2022-08-18T21:50:01.094Z,20.10
2022-08-18T21:52:29.406Z,20.00
2022-08-18T21:55:08.222Z,19.90
2022-08-18T21:58:04.796Z,19.90
2022-08-18T22:00:33.924Z,19.90
2022-08-18T22:03:16.132Z,19.90
2022-08-18T22:05:59.883Z,20.00
2022-08-18T22:08:31.164Z,20.10
2022-08-18T22:11:43.568Z,20.20
2022-08-18T22:14:35.779Z,20.20
2022-08-18T22:17:34.941Z,20.20
2022-08-18T22:20:39.701Z,20.20
2022-08-18T22:23:34.231Z,20.10
2022-08-18T22:26:16.276Z,19.80
2022-08-18T22:28:51.389Z,19.50
2022-08-18T22:31:21.275Z,19.60
2022-08-18T22:33:49.539Z,19.60
2022-08-18T22:36:19.536Z,19.60
2022-08-18T22:38:47.902Z,19.70
2022-08-18T22:41:16.497Z,19.70
2022-08-18T22:43:43.959Z,19.60
2022-08-18T22:46:11.117Z,19.60
2022-08-18T22:48:38.697Z,19.60
2022-08-18T22:51:05.897Z,19.50
2022-08-18T22:53:32.733Z,19.40
2022-08-18T22:56:05.940Z,19.40
2022-08-18T22:58:34.131Z,19.30
2022-08-18T23:01:05.436Z,19.20
2022-08-18T23:03:41.887Z,18.90
2022-08-18T23:19:13.216Z,18.80
2022-08-18T23:21:40.395Z,18.70
2022-08-18T23:24:10.479Z,18.70
2022-08-18T23:26:41.693Z,18.70
2022-08-18T23:29:11.457Z,18.70
2022-08-18T23:31:41.346Z,18.70
2022-08-18T23:34:09.189Z,18.80
2022-08-18T23:36:43.665Z,19.00
2022-08-18T23:39:12.996Z,19.10
2022-08-18T23:41:39.889Z,19.30
2022-08-18T23:44:06.836Z,19.40
2022-08-18T23:46:34.634Z,19.40
2022-08-18T23:49:04.742Z,19.50
2022-08-18T23:51:43.254Z,19.50
2022-08-18T23:54:13.867Z,19.50
2022-08-18T23:56:40.749Z,19.60
2022-08-18T23:59:08.421Z,19.70
